createdAt,value
2023-01-03T00:01:23.011Z,1.00
2023-01-03T00:03:51.741Z,1.40
2023-01-03T00:06:21.974Z,1.25
2023-01-03T00:08:50.599Z,1.20
2023-01-03T00:11:20.255Z,1.30
2023-01-03T00:13:47.608Z,1.05
2023-01-03T00:16:16.884Z,1.00
2023-01-03T00:18:45.470Z,0.85
2023-01-03T00:21:13.856Z,1.00
2023-01-03T00:23:43.506Z,1.00
2023-01-03T00:26:12.678Z,0.93
2023-01-03T00:28:41.180Z,0.95
2023-01-03T00:31:10.043Z,0.90
2023-01-03T00:33:38.452Z,0.90
2023-01-03T00:36:07.446Z,0.93
2023-01-03T00:38:36.211Z,1.05
2023-01-03T00:41:09.587Z,0.88
2023-01-03T00:43:38.299Z,1.10
2023-01-03T00:46:07.277Z,1.00
2023-01-03T00:48:36.065Z,1.05
2023-01-03T00:51:07.579Z,1.10
2023-01-03T00:53:36.410Z,1.10
2023-01-03T00:56:05.633Z,1.10
2023-01-03T00:58:35.478Z,1.02
2023-01-03T01:01:06.504Z,1.30
2023-01-03T01:03:35.363Z,1.30
2023-01-03T01:06:12.304Z,1.30
2023-01-03T01:08:40.647Z,1.33
2023-01-03T01:11:09.060Z,1.30
2023-01-03T01:13:38.946Z,1.50
2023-01-03T01:16:08.976Z,1.30
2023-01-03T01:18:37.825Z,1.52
2023-01-03T01:21:07.204Z,1.50
2023-01-03T01:23:37.139Z,1.50
2023-01-03T01:26:06.049Z,1.50
2023-01-03T01:28:35.747Z,1.63
2023-01-03T01:31:06.674Z,1.80
2023-01-03T01:33:36.248Z,1.48
2023-01-03T01:36:07.216Z,1.60
2023-01-03T01:38:35.698Z,2.10
2023-01-03T01:41:04.242Z,2.00
2023-01-03T01:43:50.462Z,1.80
2023-01-03T01:46:22.619Z,1.90
2023-01-03T01:48:52.888Z,2.15
2023-01-03T01:51:22.696Z,2.22
2023-01-03T01:53:51.747Z,2.30
2023-01-03T01:56:21.251Z,2.30
2023-01-03T01:58:50.834Z,1.88
2023-01-03T02:01:22.688Z,2.40
2023-01-03T02:03:55.409Z,2.08
2023-01-03T02:06:24.709Z,2.00
2023-01-03T02:08:53.195Z,2.10
2023-01-03T02:11:27.879Z,2.33
2023-01-03T02:14:00.966Z,2.28
2023-01-03T02:16:37.371Z,2.17
2023-01-03T02:19:13.226Z,2.00
2023-01-03T02:21:54.158Z,2.47
2023-01-03T02:24:50.719Z,2.40
2023-01-03T02:27:30.909Z,2.53
2023-01-03T02:30:29.921Z,2.83
2023-01-03T02:33:05.101Z,2.08
2023-01-03T02:35:38.381Z,2.50
2023-01-03T02:38:12.749Z,2.72
2023-01-03T02:40:43.191Z,2.80
2023-01-03T02:43:14.952Z,2.35
2023-01-03T02:45:54.097Z,2.80
2023-01-03T02:48:26.885Z,2.60
2023-01-03T02:50:56.847Z,2.58
2023-01-03T02:53:28.558Z,2.67
2023-01-03T02:55:58.452Z,2.83
2023-01-03T02:58:28.452Z,3.20
2023-01-03T03:01:00.303Z,2.78
2023-01-03T03:03:30.476Z,3.03
2023-01-03T03:06:04.535Z,2.83
2023-01-03T03:08:32.901Z,2.58
2023-01-03T03:11:19.210Z,3.33
2023-01-03T03:13:49.491Z,3.03
2023-01-03T03:16:40.888Z,3.10
2023-01-03T03:19:35.529Z,2.78
2023-01-03T03:22:23.413Z,3.65
2023-01-03T03:24:51.875Z,3.50
2023-01-03T03:27:40.872Z,3.20
2023-01-03T03:30:12.080Z,3.33
2023-01-03T03:32:43.234Z,3.10
2023-01-03T03:35:13.622Z,3.47
2023-01-03T03:37:42.788Z,3.42
2023-01-03T03:40:29.924Z,3.20
2023-01-03T03:43:17.222Z,3.28
2023-01-03T03:45:48.162Z,3.80
2023-01-03T03:48:19.849Z,3.65
2023-01-03T03:50:51.035Z,3.80
2023-01-03T03:53:20.872Z,3.80
2023-01-03T03:55:51.676Z,3.90
2023-01-03T03:58:22.549Z,3.90
2023-01-03T04:00:52.791Z,3.80
2023-01-03T04:03:23.895Z,3.97
2023-01-03T04:05:55.026Z,4.38
2023-01-03T04:08:23.693Z,3.85
2023-01-03T04:10:52.437Z,3.83
2023-01-03T04:13:20.800Z,4.45
2023-01-03T04:15:49.064Z,3.80
2023-01-03T04:18:17.473Z,4.35
2023-01-03T04:20:47.245Z,4.72
2023-01-03T04:23:15.657Z,4.07
2023-01-03T04:25:44.155Z,4.15
2023-01-03T04:28:12.476Z,4.18
2023-01-03T04:30:40.795Z,4.57
2023-01-03T04:33:09.104Z,4.78
2023-01-03T04:35:38.247Z,4.88
2023-01-03T04:38:08.279Z,4.47
2023-01-03T04:40:38.520Z,4.85
2023-01-03T04:43:24.786Z,4.75
2023-01-03T04:45:53.382Z,4.85
2023-01-03T04:48:21.772Z,5.47
2023-01-03T04:50:53.361Z,5.88
2023-01-03T04:53:23.157Z,5.72
2023-01-03T04:55:52.402Z,5.82
2023-01-03T04:58:21.536Z,6.07
2023-01-03T05:00:49.902Z,6.30
2023-01-03T05:03:24.029Z,5.70
2023-01-03T05:05:59.928Z,5.93
2023-01-03T05:08:29.601Z,5.70
2023-01-03T05:10:58.167Z,6.18
2023-01-03T05:13:26.679Z,6.75
2023-01-03T05:15:55.034Z,6.32
2023-01-03T05:18:23.404Z,7.00
2023-01-03T05:21:09.325Z,6.40
2023-01-03T05:23:56.860Z,6.32
2023-01-03T05:26:25.240Z,7.43
2023-01-03T05:28:55.251Z,7.05
2023-01-03T05:31:23.596Z,7.40
2023-01-03T05:33:52.054Z,8.05
2023-01-03T05:36:20.444Z,7.30
2023-01-03T05:38:50.260Z,7.32
2023-01-03T05:41:39.702Z,6.93
2023-01-03T05:44:08.272Z,6.68
2023-01-03T05:46:36.753Z,7.93
2023-01-03T05:49:05.177Z,7.75
2023-01-03T05:51:33.478Z,8.10
2023-01-03T05:54:03.259Z,7.47
2023-01-03T05:56:32.399Z,7.57
2023-01-03T05:59:00.763Z,8.27
2023-01-03T06:01:29.550Z,7.82
2023-01-03T06:03:58.127Z,7.47
2023-01-03T06:06:26.539Z,7.70
2023-01-03T06:08:55.570Z,7.68
2023-01-03T06:11:25.215Z,7.10
2023-01-03T06:13:53.648Z,8.10
2023-01-03T06:16:40.319Z,8.00
2023-01-03T06:19:09.630Z,7.35
2023-01-03T06:21:38.255Z,7.10
2023-01-03T06:24:07.412Z,7.65
2023-01-03T06:26:38.202Z,8.07
2023-01-03T06:29:12.482Z,8.27
2023-01-03T06:31:41.695Z,7.35
2023-01-03T06:34:10.059Z,7.20
2023-01-03T06:36:39.779Z,8.02
2023-01-03T06:39:08.757Z,7.75
2023-01-03T06:41:38.754Z,7.20
2023-01-03T06:44:07.632Z,7.45
2023-01-03T06:46:53.381Z,7.57
2023-01-03T06:49:39.828Z,7.40
2023-01-03T06:52:30.644Z,7.95
2023-01-03T06:54:59.463Z,8.23
2023-01-03T06:57:29.427Z,7.97
2023-01-03T06:59:57.777Z,7.97
2023-01-03T07:02:26.648Z,8.20
2023-01-03T07:04:55.202Z,8.60
2023-01-03T07:07:23.606Z,8.18
2023-01-03T07:09:51.935Z,7.70
2023-01-03T07:12:38.555Z,8.52
2023-01-03T07:15:09.184Z,8.48
2023-01-03T07:17:37.714Z,7.93
2023-01-03T07:20:06.948Z,8.55
2023-01-03T07:22:35.385Z,8.27
2023-01-03T07:25:03.700Z,8.60
2023-01-03T07:27:32.261Z,8.38
2023-01-03T07:30:00.748Z,8.85
2023-01-03T07:32:30.491Z,7.88
2023-01-03T07:35:07.079Z,7.80
2023-01-03T07:37:38.687Z,8.70
2023-01-03T07:40:11.877Z,8.38
2023-01-03T07:43:17.371Z,8.02
2023-01-03T07:46:24.293Z,8.63
2023-01-03T07:49:12.141Z,7.60
2023-01-03T07:52:25.521Z,7.30
2023-01-03T07:55:24.370Z,8.15
2023-01-03T07:58:10.553Z,8.40
2023-01-03T08:00:57.701Z,7.28
2023-01-03T08:09:48.667Z,9.25
2023-01-03T08:12:58.475Z,9.85
2023-01-03T08:15:38.032Z,7.88
2023-01-03T08:27:11.774Z,7.47
2023-01-03T08:29:50.126Z,9.75
2023-01-03T08:32:34.719Z,8.43
2023-01-03T08:43:01.522Z,7.65
2023-01-03T08:45:44.143Z,8.20
2023-01-03T08:48:51.057Z,7.88
2023-01-03T08:51:31.554Z,8.05
2023-01-03T08:57:40.272Z,8.43
2023-01-03T09:07:00.937Z,9.30
2023-01-03T09:12:35.979Z,8.10
2023-01-03T09:15:07.202Z,7.82
2023-01-03T09:17:45.500Z,7.63
2023-01-03T09:20:21.057Z,6.95
2023-01-03T09:22:50.746Z,6.78
2023-01-03T09:25:33.359Z,6.70
2023-01-03T09:28:05.731Z,7.57
2023-01-03T09:30:37.502Z,7.43
2023-01-03T09:33:10.662Z,7.32
2023-01-03T09:35:44.935Z,7.57
2023-01-03T09:38:18.989Z,7.15
2023-01-03T09:40:50.624Z,7.60
2023-01-03T09:43:25.264Z,6.70
2023-01-03T09:45:58.204Z,6.80
2023-01-03T09:48:34.605Z,7.35
2023-01-03T09:51:29.810Z,6.13
2023-01-03T09:54:17.361Z,5.50
2023-01-03T09:57:05.736Z,8.43
2023-01-03T09:59:53.381Z,6.50
2023-01-03T10:02:50.734Z,6.93
2023-01-03T10:06:18.503Z,6.35
2023-01-03T10:09:08.602Z,6.35
2023-01-03T10:11:45.512Z,5.18
2023-01-03T10:14:25.777Z,4.32
2023-01-03T10:16:59.717Z,4.05
2023-01-03T10:19:46.386Z,3.80
2023-01-03T10:22:15.841Z,4.03
2023-01-03T10:24:47.415Z,3.95
2023-01-03T10:27:18.062Z,3.83
2023-01-03T10:29:46.931Z,4.53
2023-01-03T10:32:33.649Z,4.18
2023-01-03T10:35:03.928Z,4.00
2023-01-03T10:37:32.334Z,4.95
2023-01-03T10:40:05.906Z,5.22
2023-01-03T10:42:41.907Z,4.10
2023-01-03T10:49:28.262Z,3.97
2023-01-03T10:52:26.678Z,5.07
2023-01-03T10:54:56.478Z,7.32
2023-01-03T10:57:43.694Z,5.28
2023-01-03T11:00:32.041Z,3.83
2023-01-03T11:03:21.770Z,4.20
2023-01-03T11:06:14.906Z,3.90
2023-01-03T11:08:53.550Z,3.55
2023-01-03T11:11:30.800Z,3.83
2023-01-03T11:14:17.431Z,4.25
2023-01-03T11:16:50.275Z,4.05
2023-01-03T11:19:19.645Z,3.63
2023-01-03T11:21:54.185Z,3.63
2023-01-03T11:24:30.021Z,4.18
2023-01-03T11:27:04.507Z,3.60
2023-01-03T11:29:55.126Z,3.50
2023-01-03T11:32:35.270Z,3.53
2023-01-03T11:35:23.430Z,3.40
2023-01-03T11:38:25.886Z,3.25
2023-01-03T11:43:57.941Z,3.28
2023-01-03T11:46:35.217Z,3.17
2023-01-03T11:49:20.478Z,2.63
2023-01-03T11:51:54.223Z,2.60
2023-01-03T11:54:33.967Z,3.15
2023-01-03T11:57:07.718Z,2.80
2023-01-03T11:59:48.072Z,3.05
2023-01-03T12:02:26.750Z,2.97
2023-01-03T12:05:02.137Z,3.08
2023-01-03T12:07:47.630Z,2.80
2023-01-03T12:10:18.350Z,2.85
2023-01-03T12:13:03.352Z,3.10
2023-01-03T12:15:37.306Z,3.05
2023-01-03T12:18:08.871Z,2.53
2023-01-03T12:20:40.319Z,2.65
2023-01-03T12:23:15.681Z,2.60
2023-01-03T12:25:45.067Z,2.60
2023-01-03T12:28:16.726Z,2.80
2023-01-03T12:30:48.285Z,2.78
2023-01-03T12:33:23.900Z,2.60
2023-01-03T12:35:58.364Z,2.45
2023-01-03T12:38:28.638Z,5.65
2023-01-03T12:40:58.505Z,2.70
2023-01-03T12:43:30.312Z,2.83
2023-01-03T12:46:06.988Z,2.42
2023-01-03T12:48:43.821Z,2.70
2023-01-03T12:51:14.679Z,2.88
2023-01-03T12:53:46.969Z,2.78
2023-01-03T12:56:25.026Z,2.75
2023-01-03T12:59:00.230Z,2.92
2023-01-03T13:01:30.267Z,2.60
2023-01-03T13:04:01.004Z,2.60
2023-01-03T13:06:32.990Z,2.70
2023-01-03T13:09:04.225Z,2.80
2023-01-03T13:11:34.243Z,2.45
2023-01-03T13:14:06.324Z,2.35
2023-01-03T13:16:43.551Z,2.00
2023-01-03T13:19:31.843Z,2.45
2023-01-03T13:22:05.680Z,2.70
2023-01-03T13:24:44.492Z,4.45
2023-01-03T13:27:23.504Z,1.80
2023-01-03T13:29:58.299Z,2.28
2023-01-03T13:32:32.933Z,2.50
2023-01-03T13:35:20.653Z,1.80
2023-01-03T13:37:51.366Z,1.90
2023-01-03T13:40:39.361Z,1.80
2023-01-03T13:43:16.760Z,2.00
2023-01-03T13:45:54.055Z,2.10
2023-01-03T13:48:31.159Z,2.25
2023-01-03T13:51:07.654Z,1.52
2023-01-03T13:53:40.916Z,1.88
2023-01-03T13:56:23.176Z,1.80
2023-01-03T13:58:53.273Z,1.98
2023-01-03T14:01:27.834Z,2.50
2023-01-03T14:04:08.682Z,1.90
2023-01-03T14:06:50.695Z,2.20
2023-01-03T14:09:29.777Z,2.30
2023-01-03T14:12:11.588Z,2.20
2023-01-03T14:14:41.355Z,2.30
2023-01-03T14:17:17.348Z,1.95
2023-01-03T14:19:50.790Z,2.33
2023-01-03T14:22:30.126Z,2.22
2023-01-03T14:25:01.584Z,2.35
2023-01-03T14:27:33.272Z,2.03
2023-01-03T14:30:02.044Z,2.25
2023-01-03T14:32:34.587Z,2.20
2023-01-03T14:35:04.137Z,2.40
2023-01-03T14:37:34.864Z,2.40
2023-01-03T14:40:06.096Z,2.50
2023-01-03T14:42:34.621Z,2.45
2023-01-03T14:45:03.743Z,2.58
2023-01-03T14:47:34.987Z,2.25
2023-01-03T14:50:04.092Z,2.65
2023-01-03T14:52:34.820Z,2.45
2023-01-03T14:55:06.155Z,2.33
2023-01-03T14:57:38.808Z,2.15
2023-01-03T15:00:08.560Z,2.30
2023-01-03T15:02:39.141Z,2.55
2023-01-03T15:05:17.725Z,2.05
2023-01-03T15:07:46.105Z,2.40
2023-01-03T15:10:20.320Z,4.53
2023-01-03T15:12:50.454Z,2.20
2023-01-03T15:15:24.140Z,2.40
2023-01-03T15:17:54.898Z,2.90
2023-01-03T15:20:25.701Z,3.97
2023-01-03T15:22:54.094Z,4.07
2023-01-03T15:25:28.076Z,2.35
2023-01-03T15:27:57.129Z,3.53
2023-01-03T15:30:27.445Z,2.38
2023-01-03T15:33:00.864Z,2.45
2023-01-03T15:35:34.449Z,2.80
2023-01-03T15:38:04.152Z,2.38
2023-01-03T15:40:33.883Z,2.10
2023-01-03T15:43:22.073Z,2.40
2023-01-03T15:45:54.039Z,2.35
2023-01-03T15:48:23.579Z,2.38
2023-01-03T15:50:52.770Z,2.60
2023-01-03T15:53:25.878Z,2.65
2023-01-03T15:55:56.856Z,2.53
2023-01-03T15:58:26.715Z,2.63
2023-01-03T16:00:55.899Z,2.75
2023-01-03T16:03:29.342Z,2.70
2023-01-03T16:05:59.740Z,2.72
2023-01-03T16:08:33.632Z,2.70
2023-01-03T16:11:04.705Z,2.60
2023-01-03T16:13:37.018Z,3.28
2023-01-03T16:16:06.838Z,2.65
2023-01-03T16:18:38.001Z,2.72
2023-01-03T16:21:06.845Z,2.80
2023-01-03T16:23:35.944Z,2.70
2023-01-03T16:26:05.768Z,2.80
2023-01-03T16:28:34.104Z,3.03
2023-01-03T16:31:03.574Z,2.90
2023-01-03T16:33:33.953Z,3.40
2023-01-03T16:36:02.836Z,2.78
2023-01-03T16:38:31.544Z,3.22
2023-01-03T16:41:00.149Z,3.15
2023-01-03T16:43:29.963Z,2.67
2023-01-03T16:46:00.218Z,2.92
2023-01-03T16:48:35.508Z,2.80
2023-01-03T16:51:03.808Z,2.67
2023-01-03T16:53:34.861Z,3.15
2023-01-03T16:56:03.558Z,2.90
2023-01-03T16:58:33.290Z,2.88
2023-01-03T17:01:01.751Z,3.05
2023-01-03T17:03:35.400Z,2.80
2023-01-03T17:06:18.168Z,3.22
2023-01-03T17:08:46.637Z,2.75
2023-01-03T17:11:17.311Z,2.58
2023-01-03T17:13:48.302Z,3.33
2023-01-03T17:16:17.794Z,3.38
2023-01-03T17:18:46.255Z,3.05
2023-01-03T17:21:20.328Z,4.25
2023-01-03T17:23:48.922Z,4.40
2023-01-03T17:26:18.633Z,4.75
2023-01-03T17:28:48.788Z,4.35
2023-01-03T17:31:18.827Z,4.57
2023-01-03T17:33:47.225Z,4.72
2023-01-03T17:36:16.126Z,5.28
2023-01-03T17:38:45.052Z,5.28
2023-01-03T17:41:17.358Z,5.03
2023-01-03T17:43:46.099Z,4.90
2023-01-03T17:46:38.269Z,4.20
2023-01-03T17:49:27.373Z,4.28
2023-01-03T17:51:56.857Z,3.95
2023-01-03T17:54:26.397Z,4.25
2023-01-03T18:06:35.420Z,4.95
2023-01-03T18:09:07.019Z,4.43
2023-01-03T18:11:36.171Z,4.75
2023-01-03T18:14:04.692Z,4.78
2023-01-03T18:16:33.395Z,4.28
2023-01-03T18:19:01.989Z,4.60
2023-01-03T18:21:30.643Z,4.82
2023-01-03T18:24:00.402Z,4.60
2023-01-03T18:26:35.720Z,4.85
2023-01-03T18:29:04.179Z,4.72
2023-01-03T18:31:33.259Z,4.82
2023-01-03T18:34:04.100Z,4.90
2023-01-03T18:36:34.527Z,4.45
2023-01-03T18:39:05.817Z,4.70
2023-01-03T18:41:38.158Z,4.78
2023-01-03T18:44:07.123Z,5.03
2023-01-03T18:46:35.546Z,4.45
2023-01-03T18:49:04.436Z,4.07
2023-01-03T18:51:33.253Z,5.18
2023-01-03T18:54:02.079Z,4.85
2023-01-03T18:59:23.606Z,4.40
2023-01-03T19:01:52.431Z,4.88
2023-01-03T19:04:34.141Z,5.32
2023-01-03T19:07:34.496Z,5.28
2023-01-03T19:10:06.126Z,4.68
2023-01-03T19:12:48.471Z,5.43
2023-01-03T19:18:50.820Z,5.35
2023-01-03T19:21:20.842Z,5.38
2023-01-03T19:23:57.547Z,5.10
2023-01-03T19:26:39.089Z,5.65
2023-01-03T19:29:09.213Z,20.15
2023-01-03T19:31:41.916Z,9.95
2023-01-03T19:34:22.637Z,10.25
2023-01-03T19:37:07.165Z,6.57
2023-01-03T19:39:50.726Z,6.97
2023-01-03T19:42:51.334Z,6.60
2023-01-03T19:45:23.650Z,6.47
2023-01-03T19:47:52.738Z,5.88
2023-01-03T19:51:00.207Z,5.68
2023-01-03T19:54:15.688Z,5.15
2023-01-03T19:57:17.169Z,5.13
2023-01-03T20:00:18.320Z,5.20
2023-01-03T20:02:49.103Z,5.25
2023-01-03T20:05:35.460Z,5.88
2023-01-03T20:08:11.561Z,5.43
2023-01-03T20:14:17.250Z,7.38
2023-01-03T20:16:46.822Z,4.97
2023-01-03T20:19:17.938Z,4.97
2023-01-03T20:21:54.309Z,5.00
2023-01-03T20:24:25.196Z,4.75
2023-01-03T20:26:58.160Z,4.70
2023-01-03T20:29:26.623Z,4.45
2023-01-03T20:31:56.968Z,4.32
2023-01-03T20:34:25.355Z,4.72
2023-01-03T20:36:55.481Z,4.43
2023-01-03T20:39:26.074Z,5.18
2023-01-03T20:41:58.594Z,4.65
2023-01-03T20:44:32.862Z,4.30
2023-01-03T20:47:01.501Z,4.55
2023-01-03T20:49:30.040Z,4.22
2023-01-03T20:51:58.349Z,4.85
2023-01-03T20:54:26.648Z,4.32
2023-01-03T20:56:54.914Z,4.00
2023-01-03T20:59:24.269Z,4.28
2023-01-03T21:01:54.075Z,3.80
2023-01-03T21:04:22.522Z,4.30
2023-01-03T21:06:52.597Z,4.47
2023-01-03T21:09:19.953Z,4.80
2023-01-03T21:11:48.290Z,4.07
2023-01-03T21:14:16.683Z,3.90
2023-01-03T21:16:46.262Z,3.40
2023-01-03T21:19:17.208Z,3.47
2023-01-03T21:21:46.388Z,3.58
2023-01-03T21:24:15.626Z,3.20
2023-01-03T21:26:44.042Z,3.30
2023-01-03T21:29:13.298Z,3.47
2023-01-03T21:31:43.000Z,3.40
2023-01-03T21:34:17.236Z,3.17
2023-01-03T21:36:45.613Z,4.10
2023-01-03T21:39:14.067Z,3.15
2023-01-03T21:41:56.559Z,3.50
2023-01-03T21:44:24.936Z,3.88
2023-01-03T21:46:53.366Z,3.72
2023-01-03T21:49:23.082Z,3.50
2023-01-03T21:51:51.471Z,3.80
2023-01-03T21:54:19.776Z,3.28
2023-01-03T21:56:48.180Z,3.63
2023-01-03T21:59:17.092Z,3.42
2023-01-03T22:02:03.710Z,4.47
2023-01-03T22:04:41.398Z,4.57
2023-01-03T22:07:09.951Z,3.50
2023-01-03T22:09:55.919Z,3.35
2023-01-03T22:12:24.379Z,3.50
2023-01-03T22:14:52.819Z,3.25
2023-01-03T22:17:21.266Z,3.42
2023-01-03T22:19:51.215Z,3.55
2023-01-03T22:22:20.114Z,3.35
2023-01-03T22:24:48.727Z,3.88
2023-01-03T22:27:18.176Z,3.53
2023-01-03T22:29:46.988Z,3.70
2023-01-03T22:32:15.394Z,3.60
2023-01-03T22:34:43.997Z,3.70
2023-01-03T22:37:14.026Z,3.35
2023-01-03T22:39:42.419Z,3.30
2023-01-03T22:42:16.008Z,3.20
2023-01-03T22:44:47.749Z,3.63
2023-01-03T22:47:16.063Z,3.72
2023-01-03T22:49:44.385Z,3.35
2023-01-03T22:52:14.045Z,3.03
2023-01-03T22:54:42.502Z,3.10
2023-01-03T22:57:11.916Z,3.30
2023-01-03T22:59:40.259Z,3.25
2023-01-03T23:02:13.706Z,3.25
2023-01-03T23:04:48.251Z,3.17
2023-01-03T23:07:17.918Z,3.20
2023-01-03T23:09:46.167Z,3.83
2023-01-03T23:12:31.934Z,3.58
2023-01-03T23:15:00.266Z,3.67
2023-01-03T23:17:46.185Z,4.25
2023-01-03T23:20:14.597Z,3.75
2023-01-03T23:22:44.398Z,3.55
2023-01-03T23:25:13.036Z,3.85
2023-01-03T23:27:41.382Z,3.83
2023-01-03T23:30:10.469Z,6.35
2023-01-03T23:32:38.818Z,4.00
2023-01-03T23:35:07.490Z,4.07
2023-01-03T23:37:35.876Z,5.05
2023-01-03T23:40:05.752Z,4.45
2023-01-03T23:42:34.119Z,4.05
2023-01-03T23:45:02.420Z,3.95
2023-01-03T23:47:30.770Z,4.05
2023-01-03T23:49:59.180Z,4.00
2023-01-03T23:52:27.570Z,3.90
2023-01-03T23:55:00.752Z,3.75
2023-01-03T23:57:33.419Z,3.63
